Flight Track Log - Related Links

Times and Time Zones

All times are in EDT time to prevent confusion due to time zone crossing. See the RPA3228 flight status page for this flight to view local times or setup timezone preferences in your user account.

Time Position Orientation Groundspeed Altitude Reporting Facility
EDT Latitude Longitude Course Direction KTS MPH feet Rate Location/Type
Sat 07:42:48 AM 36.1333 -86.6833 64° Northeast 141 162 1,500  Level Nashville TRACON
Sat 07:43:54 AM 36.1500 -86.7667 284° West 219 252 3,600 2,095 Climbing Nashville TRACON
Sat 07:44:54 AM 36.2000 -86.7333 28° Northeast 293 337 5,900 2,345 Climbing Nashville TRACON
Sat 07:45:00 AM 36.1612 -86.2944 76° East  Level FlightAware Approximate
Sat 07:45:44 AM 36.1969 -86.6458 92° East 308 354 7,900  Level Memphis Center
Sat 07:46:00 AM 36.1850 -86.1719 80° East  Level FlightAware Approximate
Sat 07:46:44 AM 36.1978 -86.5403 89° East 327 376 10,900  Level Memphis Center
Sat 07:47:00 AM 36.2069 -86.0495 64° Northeast  Level FlightAware Approximate
Sat 07:47:44 AM 36.1986 -86.4297 89° East 321 369 13,200  Level Memphis Center
Sat 07:48:44 AM 36.1989 -86.3089 90° East 336 387 15,700 2,400 Climbing Memphis Center
Sat 07:49:44 AM 36.1989 -86.1881 90° East 344 396 18,000 1,950 Climbing Memphis Center
Sat 07:50:44 AM 36.2072 -86.0614 85° East 354 407 19,600 1,657 Climbing Memphis Center
Sat 07:53:14 AM 36.3378 -85.7644 61° Northeast 402 463 23,800 1,649 Climbing Indianapolis Center
Sat 07:54:15 AM 36.3967 -85.6417 59° Northeast 413 475 25,400 1,377 Climbing Indianapolis Center
Sat 07:55:16 AM 36.4569 -85.5150 59° Northeast 422 486 26,600 1,279 Climbing Indianapolis Center
Sat 07:56:17 AM 36.5189 -85.3817 60° Northeast 439 505 28,000 1,279 Climbing Indianapolis Center
Sat 07:57:18 AM 36.5850 -85.2453 59° Northeast 454 522 29,200 1,131 Climbing Indianapolis Center
Sat 07:58:19 AM 36.6528 -85.1042 59° Northeast 470 541 30,300 1,082 Climbing Indianapolis Center
Sat 07:59:20 AM 36.7278 -84.9614 57° Northeast 487 560 31,400 836 Climbing Indianapolis Center
Sat 08:00:21 AM 36.8042 -84.8150 57° Northeast 499 574 32,000 295 Climbing Indianapolis Center
Sat 08:01:22 AM 36.8806 -84.6689 57° Northeast 501 577 32,000 295 Level Indianapolis Center
Sat 08:02:23 AM 36.9572 -84.5044 60° Northeast 513 590 32,600 492 Climbing Indianapolis Center
Sat 08:03:24 AM 37.0017 -84.3328 72° East 520 598 33,000 197 Climbing Indianapolis Center
Sat 08:04:25 AM 37.0456 -84.1622 72° East 517 595 33,000  Level Indianapolis Center
Sat 08:05:26 AM 37.0883 -83.9906 73° East 515 593 33,000  Level Indianapolis Center
Sat 08:06:26 AM 37.1347 -83.8181 71° East 517 595 33,000  Level Indianapolis Center
Sat 08:07:27 AM 37.1778 -83.6433 73° East 523 602 33,000  Level Indianapolis Center
Sat 08:08:28 AM 37.2203 -83.4719 73° East 514 592 33,000  Level Indianapolis Center
Sat 08:09:29 AM 37.2642 -83.3006 72° East 511 588 33,000  Level Indianapolis Center
Sat 08:10:30 AM 37.3072 -83.1253 73° East 520 598 33,000  Level Indianapolis Center
Sat 08:11:31 AM 37.3497 -82.9500 73° East 519 597 33,000  Level Indianapolis Center
Sat 08:12:32 AM 37.3931 -82.7772 72° East 514 592 33,000  Level Indianapolis Center
Sat 08:13:33 AM 37.4356 -82.6050 73° East 512 589 33,000  Level Indianapolis Center
Sat 08:14:34 AM 37.4767 -82.4317 73° East 514 592 33,000  Level Indianapolis Center
Sat 08:15:35 AM 37.5172 -82.2578 74° East 515 593 33,000  Level Indianapolis Center
Sat 08:16:36 AM 37.5603 -82.0842 73° East 517 595 33,000  Level Indianapolis Center
Sat 08:17:37 AM 37.5994 -81.9081 74° East 520 598 33,000  Level Indianapolis Center
Sat 08:18:38 AM 37.6472 -81.7042 73° East 519 597 33,000  Level Indianapolis Center
Sat 08:19:39 AM 37.6881 -81.5300 73° East 517 595 33,000  Level Indianapolis Center
Sat 08:20:40 AM 37.7253 -81.3708 73° East 513 590 33,000  Level Indianapolis Center
Sat 08:21:41 AM 37.7625 -81.2053 74° East 507 583 33,000  Level Indianapolis Center
Sat 08:21:58 AM 37.7778 -81.1411 73° East 501 577 33,000  Level Washington Center
Sat 08:22:59 AM 37.8311 -80.9819 67° East 489 563 33,000  Level Washington Center
Sat 08:24:00 AM 37.8883 -80.8178 66° East 489 563 33,000  Level Washington Center
Sat 08:24:58 AM 37.9381 -80.6789 66° East 489 563 33,000  Level Washington Center
Sat 08:25:58 AM 37.9947 -80.5219 65° Northeast 489 563 33,000  Level Washington Center
Sat 08:26:59 AM 38.0450 -80.3619 68° East 489 563 33,000  Level Washington Center
Sat 08:27:59 AM 38.0911 -80.1986 70° East 484 557 33,000  Level Washington Center
Sat 08:28:57 AM 38.1347 -80.0400 71° East 478 550 33,000  Level Washington Center
Sat 08:29:58 AM 38.1831 -79.8581 71° East 484 557 33,000  Level Washington Center
Sat 08:30:58 AM 38.2281 -79.6967 70° East 484 557 33,000  Level Washington Center
Sat 08:31:59 AM 38.2714 -79.5297 72° East 484 557 33,000  Level Washington Center
Sat 08:32:59 AM 38.3142 -79.3681 71° East 489 563 33,000  Level Washington Center
Sat 08:33:59 AM 38.3567 -79.2061 71° East 489 563 33,000 -1,160 Level Washington Center
Sat 08:34:58 AM 38.3964 -79.0542 72° East 489 563 30,700 -2,420 Descending Washington Center
Sat 08:35:58 AM 38.4364 -78.8969 72° East 483 556 28,200 -2,218 Descending Washington Center
Sat 08:36:57 AM 38.4808 -78.7214 72° East 471 542 26,300 -2,331 Descending Washington Center
Sat 08:37:59 AM 38.5111 -78.5925 73° East 449 517 23,500 -2,459 Descending Washington Center
Sat 08:38:59 AM 38.5481 -78.4508 72° East 436 502 21,300 -2,150 Descending Washington Center
Sat 08:39:59 AM 38.5825 -78.3139 72° East 412 474 19,200 -1,983 Descending Washington Center
Sat 08:41:00 AM 38.6164 -78.1903 71° East 390 449 17,300 -1,563 Descending Washington Center
Sat 08:41:58 AM 38.6169 -78.0708 90° East 345 397 16,100 -1,462 Descending Washington Center
Sat 08:42:59 AM 38.5942 -77.9583 104° East 330 380 14,400 -1,721 Descending Washington Center
Sat 08:44:00 AM 38.6600 -77.8861 41° Northeast 278 320 12,600 -1,714 Descending Washington Center
Sat 08:44:58 AM 38.7444 -77.8381 24° Northeast 276 318 11,000 -814 Descending Washington Center
Sat 08:45:58 AM 38.8003 -77.7414 53° Northeast 300 345 11,000 -446 Level Washington Center
Sat 08:46:59 AM 38.8628 -77.6364 53° Northeast 336 387 10,100 -1,250 Descending Washington Center
Sat 08:47:58 AM 38.9167 -77.5500 51° Northeast 329 379 8,500 -1,462 Descending Potomac TRACON
Sat 08:48:58 AM 38.9500 -77.4333 70° East 322 371 7,200 -750 Descending Potomac TRACON
Sat 08:49:58 AM 38.9167 -77.3667 123° Southeast 236 272 7,000 -100 Descending Potomac TRACON
Sat 08:50:58 AM 38.8833 -77.3167 131° Southeast 197 227 7,000 -200 Level Potomac TRACON
Sat 08:51:58 AM 38.8333 -77.2667 142° Southeast 197 227 6,600 -526 Descending Potomac TRACON
Sat 08:52:52 AM 38.8333 -77.2000 90° East 223 257 6,000 -316 Descending Potomac TRACON
Sat 08:53:52 AM 38.8833 -77.1833 15° North 220 253 6,000  Level Potomac TRACON
Sat 08:54:46 AM 38.9167 -77.2167 322° Northwest 178 205 6,000  Level Potomac TRACON
Sat 08:55:46 AM 38.9500 -77.2667 311° West 172 198 6,000  Level Potomac TRACON
Sat 08:56:46 AM 38.9833 -77.3000 322° Northwest 174 200 6,000 -150 Level Potomac TRACON
Sat 08:57:46 AM 39.0167 -77.3500 311° West 195 224 5,700 -632 Descending Potomac TRACON
Sat 08:58:40 AM 39.0500 -77.2833 57° Northeast 222 255 4,800 -1,101 Descending Potomac TRACON
Sat 08:59:35 AM 39.0500 -77.2333 90° East 212 244 3,700 -939 Descending Potomac TRACON
Sat 09:00:35 AM 39.0167 -77.1833 131° Southeast 181 208 3,000 -500 Descending Potomac TRACON
Sat 09:01:35 AM 38.9667 -77.1500 153° Southeast 180 207 2,700 -300 Descending Potomac TRACON

Login

Don't have an account? Register now (free) for customized features, flight alerts, and more!